sensor_id;sensor_type;location;lat;lon;timestamp;temperature;humidity
16243;DHT22;11719;51.052;6.982;2023-02-01T00:00:46;11.60;99.90
16243;DHT22;11719;51.052;6.982;2023-02-01T00:03:11;11.70;99.90
16243;DHT22;11719;51.052;6.982;2023-02-01T00:05:38;11.80;99.90
16243;DHT22;11719;51.052;6.982;2023-02-01T00:08:04;11.80;99.90
16243;DHT22;11719;51.052;6.982;2023-02-01T00:10:30;11.60;99.90
16243;DHT22;11719;51.052;6.982;2023-02-01T00:12:56;11.50;99.90
16243;DHT22;11719;51.052;6.982;2023-02-01T00:15:22;11.50;99.90
16243;DHT22;11719;51.052;6.982;2023-02-01T00:17:52;11.50;99.90
16243;DHT22;11719;51.052;6.982;2023-02-01T00:20:19;11.50;99.90
16243;DHT22;11719;51.052;6.982;2023-02-01T00:22:45;11.60;99.90
16243;DHT22;11719;51.052;6.982;2023-02-01T00:25:11;11.70;99.90
16243;DHT22;11719;51.052;6.982;2023-02-01T00:27:36;11.80;99.90
16243;DHT22;11719;51.052;6.982;2023-02-01T00:30:02;11.90;99.90
16243;DHT22;11719;51.052;6.982;2023-02-01T00:32:28;12.00;99.90
16243;DHT22;11719;51.052;6.982;2023-02-01T00:34:54;12.10;99.90
16243;DHT22;11719;51.052;6.982;2023-02-01T00:37:20;12.10;99.90
16243;DHT22;11719;51.052;6.982;2023-02-01T00:39:46;12.10;99.90
16243;DHT22;11719;51.052;6.982;2023-02-01T00:42:12;12.10;99.90
16243;DHT22;11719;51.052;6.982;2023-02-01T00:44:38;12.00;99.90
16243;DHT22;11719;51.052;6.982;2023-02-01T00:47:04;11.90;99.90
16243;DHT22;11719;51.052;6.982;2023-02-01T00:49:30;11.90;99.90
16243;DHT22;11719;51.052;6.982;2023-02-01T00:51:55;11.70;99.90
16243;DHT22;11719;51.052;6.982;2023-02-01T00:54:21;11.50;99.90
16243;DHT22;11719;51.052;6.982;2023-02-01T00:56:48;11.50;99.90
16243;DHT22;11719;51.052;6.982;2023-02-01T00:59:13;11.50;99.90
16243;DHT22;11719;51.052;6.982;2023-02-01T01:01:39;11.60;99.90
16243;DHT22;11719;51.052;6.982;2023-02-01T01:04:05;11.60;99.90
16243;DHT22;11719;51.052;6.982;2023-02-01T01:06:32;11.50;99.90
16243;DHT22;11719;51.052;6.982;2023-02-01T01:09:01;11.60;99.90
16243;DHT22;11719;51.052;6.982;2023-02-01T01:11:32;11.40;99.90
16243;DHT22;11719;51.052;6.982;2023-02-01T01:14:00;11.20;99.90
16243;DHT22;11719;51.052;6.982;2023-02-01T01:16:29;11.00;99.90
16243;DHT22;11719;51.052;6.982;2023-02-01T01:18:56;10.80;99.90
16243;DHT22;11719;51.052;6.982;2023-02-01T01:21:22;10.60;99.90
16243;DHT22;11719;51.052;6.982;2023-02-01T01:23:48;10.60;99.90
16243;DHT22;11719;51.052;6.982;2023-02-01T01:26:16;10.60;99.90
16243;DHT22;11719;51.052;6.982;2023-02-01T01:28:46;10.70;99.90
16243;DHT22;11719;51.052;6.982;2023-02-01T01:31:14;10.90;99.90
16243;DHT22;11719;51.052;6.982;2023-02-01T01:33:41;11.00;99.90
16243;DHT22;11719;51.052;6.982;2023-02-01T01:36:11;11.10;99.90
16243;DHT22;11719;51.052;6.982;2023-02-01T01:38:38;11.10;99.90
16243;DHT22;11719;51.052;6.982;2023-02-01T01:41:04;11.00;99.90
16243;DHT22;11719;51.052;6.982;2023-02-01T01:44:53;10.90;99.90
16243;DHT22;11719;51.052;6.982;2023-02-01T01:47:10;11.10;99.90
16243;DHT22;11719;51.052;6.982;2023-02-01T01:49:36;11.40;99.90
16243;DHT22;11719;51.052;6.982;2023-02-01T01:52:04;11.60;99.90
16243;DHT22;11719;51.052;6.982;2023-02-01T01:54:47;11.70;99.90
16243;DHT22;11719;51.052;6.982;2023-02-01T01:57:17;11.80;99.90
16243;DHT22;11719;51.052;6.982;2023-02-01T02:00:27;11.80;99.90
16243;DHT22;11719;51.052;6.982;2023-02-01T02:02:47;11.70;99.90
16243;DHT22;11719;51.052;6.982;2023-02-01T02:05:17;11.70;99.90
16243;DHT22;11719;51.052;6.982;2023-02-01T02:07:46;11.70;99.90
16243;DHT22;11719;51.052;6.982;2023-02-01T02:10:14;11.60;99.90
16243;DHT22;11719;51.052;6.982;2023-02-01T02:12:43;11.70;99.90
16243;DHT22;11719;51.052;6.982;2023-02-01T02:15:13;11.80;99.90
16243;DHT22;11719;51.052;6.982;2023-02-01T02:29:45;11.90;99.90
16243;DHT22;11719;51.052;6.982;2023-02-01T02:37:42;12.10;99.90
16243;DHT22;11719;51.052;6.982;2023-02-01T02:40:31;12.10;99.90
16243;DHT22;11719;51.052;6.982;2023-02-01T02:43:20;12.20;99.90
16243;DHT22;11719;51.052;6.982;2023-02-01T02:46:35;12.10;99.90
16243;DHT22;11719;51.052;6.982;2023-02-01T02:49:40;12.10;99.90
16243;DHT22;11719;51.052;6.982;2023-02-01T02:52:29;12.20;99.90
16243;DHT22;11719;51.052;6.982;2023-02-01T02:55:16;12.00;99.90
16243;DHT22;11719;51.052;6.982;2023-02-01T02:57:44;12.00;99.90
16243;DHT22;11719;51.052;6.982;2023-02-01T03:00:32;11.90;99.90
16243;DHT22;11719;51.052;6.982;2023-02-01T03:03:17;11.90;99.90
16243;DHT22;11719;51.052;6.982;2023-02-01T03:06:03;11.70;99.90
16243;DHT22;11719;51.052;6.982;2023-02-01T03:08:30;11.80;99.90
16243;DHT22;11719;51.052;6.982;2023-02-01T03:11:08;11.80;99.90
16243;DHT22;11719;51.052;6.982;2023-02-01T03:13:56;11.80;99.90
16243;DHT22;11719;51.052;6.982;2023-02-01T03:16:39;11.50;99.90
16243;DHT22;11719;51.052;6.982;2023-02-01T03:19:17;11.50;99.90
16243;DHT22;11719;51.052;6.982;2023-02-01T03:21:50;11.40;99.90
16243;DHT22;11719;51.052;6.982;2023-02-01T03:24:46;11.30;99.90
16243;DHT22;11719;51.052;6.982;2023-02-01T03:30:02;11.30;99.90
16243;DHT22;11719;51.052;6.982;2023-02-01T03:32:36;11.30;99.90
16243;DHT22;11719;51.052;6.982;2023-02-01T03:36:35;11.20;99.90
16243;DHT22;11719;51.052;6.982;2023-02-01T03:38:52;11.20;99.90
16243;DHT22;11719;51.052;6.982;2023-02-01T03:44:23;11.40;99.90
16243;DHT22;11719;51.052;6.982;2023-02-01T03:49:49;11.30;99.90
16243;DHT22;11719;51.052;6.982;2023-02-01T03:52:36;11.40;99.90
16243;DHT22;11719;51.052;6.982;2023-02-01T03:55:05;11.60;99.90
16243;DHT22;11719;51.052;6.982;2023-02-01T03:57:39;11.60;99.90
16243;DHT22;11719;51.052;6.982;2023-02-01T04:00:29;11.60;99.90
16243;DHT22;11719;51.052;6.982;2023-02-01T04:02:55;11.60;99.90
16243;DHT22;11719;51.052;6.982;2023-02-01T04:05:21;11.70;99.90
16243;DHT22;11719;51.052;6.982;2023-02-01T04:07:47;11.70;99.90
16243;DHT22;11719;51.052;6.982;2023-02-01T04:10:14;11.70;99.90
16243;DHT22;11719;51.052;6.982;2023-02-01T04:12:40;11.80;99.90
16243;DHT22;11719;51.052;6.982;2023-02-01T04:15:07;11.80;99.90
16243;DHT22;11719;51.052;6.982;2023-02-01T04:17:33;11.60;99.90
16243;DHT22;11719;51.052;6.982;2023-02-01T04:19:59;11.60;99.90
16243;DHT22;11719;51.052;6.982;2023-02-01T04:22:25;11.70;99.90
16243;DHT22;11719;51.052;6.982;2023-02-01T04:24:50;11.30;99.90
16243;DHT22;11719;51.052;6.982;2023-02-01T04:27:16;11.30;99.90
16243;DHT22;11719;51.052;6.982;2023-02-01T04:29:42;11.20;99.90
16243;DHT22;11719;51.052;6.982;2023-02-01T04:32:10;11.10;99.90
16243;DHT22;11719;51.052;6.982;2023-02-01T04:34:36;11.00;99.90
16243;DHT22;11719;51.052;6.982;2023-02-01T04:37:02;11.00;99.90
16243;DHT22;11719;51.052;6.982;2023-02-01T04:39:28;11.00;99.90
16243;DHT22;11719;51.052;6.982;2023-02-01T04:41:54;10.90;99.90
16243;DHT22;11719;51.052;6.982;2023-02-01T04:44:19;10.90;99.90
16243;DHT22;11719;51.052;6.982;2023-02-01T04:46:46;10.90;99.90
16243;DHT22;11719;51.052;6.982;2023-02-01T04:49:13;11.00;99.90
16243;DHT22;11719;51.052;6.982;2023-02-01T04:51:40;10.90;99.90
16243;DHT22;11719;51.052;6.982;2023-02-01T04:54:07;10.90;99.90
16243;DHT22;11719;51.052;6.982;2023-02-01T04:56:34;11.00;99.90
16243;DHT22;11719;51.052;6.982;2023-02-01T04:59:03;10.90;99.90
16243;DHT22;11719;51.052;6.982;2023-02-01T05:01:29;10.90;99.90
16243;DHT22;11719;51.052;6.982;2023-02-01T05:03:55;10.80;99.90
16243;DHT22;11719;51.052;6.982;2023-02-01T05:06:21;10.70;99.90
16243;DHT22;11719;51.052;6.982;2023-02-01T05:08:47;10.70;99.90
16243;DHT22;11719;51.052;6.982;2023-02-01T05:11:13;10.80;99.90
16243;DHT22;11719;51.052;6.982;2023-02-01T05:13:59;10.70;99.90
16243;DHT22;11719;51.052;6.982;2023-02-01T05:16:25;10.60;99.90
16243;DHT22;11719;51.052;6.982;2023-02-01T05:18:51;10.60;99.90
16243;DHT22;11719;51.052;6.982;2023-02-01T05:21:17;10.40;99.90
16243;DHT22;11719;51.052;6.982;2023-02-01T05:23:43;10.50;99.90
16243;DHT22;11719;51.052;6.982;2023-02-01T05:26:28;10.40;99.90
16243;DHT22;11719;51.052;6.982;2023-02-01T05:28:53;10.30;99.90
16243;DHT22;11719;51.052;6.982;2023-02-01T05:31:20;10.40;99.90
16243;DHT22;11719;51.052;6.982;2023-02-01T05:33:46;10.30;99.90
16243;DHT22;11719;51.052;6.982;2023-02-01T05:36:12;10.40;99.90
16243;DHT22;11719;51.052;6.982;2023-02-01T05:38:38;10.60;99.90
16243;DHT22;11719;51.052;6.982;2023-02-01T05:41:04;10.50;99.90
16243;DHT22;11719;51.052;6.982;2023-02-01T05:43:30;10.40;99.90
16243;DHT22;11719;51.052;6.982;2023-02-01T05:45:56;10.30;99.90
16243;DHT22;11719;51.052;6.982;2023-02-01T05:48:21;10.20;99.90
16243;DHT22;11719;51.052;6.982;2023-02-01T05:50:47;10.20;99.90
16243;DHT22;11719;51.052;6.982;2023-02-01T05:53:13;10.10;99.90
16243;DHT22;11719;51.052;6.982;2023-02-01T05:55:39;10.00;99.90
16243;DHT22;11719;51.052;6.982;2023-02-01T05:58:05;10.00;99.90
16243;DHT22;11719;51.052;6.982;2023-02-01T06:00:31;9.90;99.90
16243;DHT22;11719;51.052;6.982;2023-02-01T06:02:57;9.90;99.90
16243;DHT22;11719;51.052;6.982;2023-02-01T06:05:23;9.70;99.90
16243;DHT22;11719;51.052;6.982;2023-02-01T06:07:49;9.60;99.90
16243;DHT22;11719;51.052;6.982;2023-02-01T06:10:16;9.60;99.90
16243;DHT22;11719;51.052;6.982;2023-02-01T06:12:43;9.60;99.90
16243;DHT22;11719;51.052;6.982;2023-02-01T06:15:11;9.50;99.90
16243;DHT22;11719;51.052;6.982;2023-02-01T06:17:37;9.60;99.90
16243;DHT22;11719;51.052;6.982;2023-02-01T06:20:05;9.50;99.90
16243;DHT22;11719;51.052;6.982;2023-02-01T06:22:32;9.60;99.90
16243;DHT22;11719;51.052;6.982;2023-02-01T06:24:58;9.40;99.90
16243;DHT22;11719;51.052;6.982;2023-02-01T06:27:25;9.30;99.90
16243;DHT22;11719;51.052;6.982;2023-02-01T06:29:51;9.30;99.90
16243;DHT22;11719;51.052;6.982;2023-02-01T06:32:17;9.20;99.90
16243;DHT22;11719;51.052;6.982;2023-02-01T06:34:43;9.20;99.90
16243;DHT22;11719;51.052;6.982;2023-02-01T06:37:09;9.10;99.90
16243;DHT22;11719;51.052;6.982;2023-02-01T06:39:36;9.20;99.90
16243;DHT22;11719;51.052;6.982;2023-02-01T06:42:03;9.30;99.90
16243;DHT22;11719;51.052;6.982;2023-02-01T06:44:28;9.50;99.90
16243;DHT22;11719;51.052;6.982;2023-02-01T06:46:55;9.50;99.90
16243;DHT22;11719;51.052;6.982;2023-02-01T06:49:21;9.60;99.90
16243;DHT22;11719;51.052;6.982;2023-02-01T06:51:47;9.70;99.90
16243;DHT22;11719;51.052;6.982;2023-02-01T06:54:13;9.50;99.90
16243;DHT22;11719;51.052;6.982;2023-02-01T06:56:38;9.60;99.90
16243;DHT22;11719;51.052;6.982;2023-02-01T06:59:05;9.50;99.90
16243;DHT22;11719;51.052;6.982;2023-02-01T07:01:32;9.60;99.90
16243;DHT22;11719;51.052;6.982;2023-02-01T07:03:57;9.90;99.90
16243;DHT22;11719;51.052;6.982;2023-02-01T07:06:23;9.80;99.90
16243;DHT22;11719;51.052;6.982;2023-02-01T07:08:49;9.90;99.90
16243;DHT22;11719;51.052;6.982;2023-02-01T07:11:16;10.00;99.90
16243;DHT22;11719;51.052;6.982;2023-02-01T07:13:43;9.90;99.90
16243;DHT22;11719;51.052;6.982;2023-02-01T07:16:11;10.00;99.90
16243;DHT22;11719;51.052;6.982;2023-02-01T07:18:38;10.20;99.90
16243;DHT22;11719;51.052;6.982;2023-02-01T07:21:04;10.50;99.90
16243;DHT22;11719;51.052;6.982;2023-02-01T07:23:31;10.40;99.90
16243;DHT22;11719;51.052;6.982;2023-02-01T07:25:58;10.60;99.90
16243;DHT22;11719;51.052;6.982;2023-02-01T07:28:26;10.50;99.90
16243;DHT22;11719;51.052;6.982;2023-02-01T07:30:54;10.40;99.90
16243;DHT22;11719;51.052;6.982;2023-02-01T07:33:21;10.60;99.90
16243;DHT22;11719;51.052;6.982;2023-02-01T07:35:49;10.70;99.90
16243;DHT22;11719;51.052;6.982;2023-02-01T07:38:16;10.70;99.90
16243;DHT22;11719;51.052;6.982;2023-02-01T07:40:43;10.70;99.90
16243;DHT22;11719;51.052;6.982;2023-02-01T07:43:09;10.70;99.90
16243;DHT22;11719;51.052;6.982;2023-02-01T07:45:35;10.80;99.90
16243;DHT22;11719;51.052;6.982;2023-02-01T07:48:02;10.70;99.90
16243;DHT22;11719;51.052;6.982;2023-02-01T07:50:29;10.80;99.90
16243;DHT22;11719;51.052;6.982;2023-02-01T07:52:55;10.80;99.90
16243;DHT22;11719;51.052;6.982;2023-02-01T07:55:21;10.80;99.90
16243;DHT22;11719;51.052;6.982;2023-02-01T07:57:47;10.70;99.90
16243;DHT22;11719;51.052;6.982;2023-02-01T08:00:13;10.80;99.90
16243;DHT22;11719;51.052;6.982;2023-02-01T08:02:59;10.60;99.90
16243;DHT22;11719;51.052;6.982;2023-02-01T08:05:25;10.30;99.90
16243;DHT22;11719;51.052;6.982;2023-02-01T08:07:52;10.50;99.90
16243;DHT22;11719;51.052;6.982;2023-02-01T08:10:18;10.50;99.90
16243;DHT22;11719;51.052;6.982;2023-02-01T08:12:45;10.60;99.90
16243;DHT22;11719;51.052;6.982;2023-02-01T08:15:17;10.80;99.90
16243;DHT22;11719;51.052;6.982;2023-02-01T08:17:50;10.80;99.90
16243;DHT22;11719;51.052;6.982;2023-02-01T08:20:18;10.80;99.90
16243;DHT22;11719;51.052;6.982;2023-02-01T08:22:44;10.90;99.90
16243;DHT22;11719;51.052;6.982;2023-02-01T08:25:10;10.60;99.90
16243;DHT22;11719;51.052;6.982;2023-02-01T08:27:37;10.30;99.90
16243;DHT22;11719;51.052;6.982;2023-02-01T08:30:04;10.20;99.90
16243;DHT22;11719;51.052;6.982;2023-02-01T08:32:33;10.30;99.90
16243;DHT22;11719;51.052;6.982;2023-02-01T08:34:59;10.10;99.90
16243;DHT22;11719;51.052;6.982;2023-02-01T08:37:25;10.20;99.90
16243;DHT22;11719;51.052;6.982;2023-02-01T08:39:51;10.10;99.90
16243;DHT22;11719;51.052;6.982;2023-02-01T08:42:17;10.20;99.90
16243;DHT22;11719;51.052;6.982;2023-02-01T08:45:02;10.40;99.90
16243;DHT22;11719;51.052;6.982;2023-02-01T08:47:30;10.50;99.90
16243;DHT22;11719;51.052;6.982;2023-02-01T08:49:56;10.40;99.90
16243;DHT22;11719;51.052;6.982;2023-02-01T08:52:22;10.20;99.90
16243;DHT22;11719;51.052;6.982;2023-02-01T08:54:48;10.50;99.90
16243;DHT22;11719;51.052;6.982;2023-02-01T08:57:14;10.50;99.90
16243;DHT22;11719;51.052;6.982;2023-02-01T08:59:40;10.60;99.90
16243;DHT22;11719;51.052;6.982;2023-02-01T09:02:08;10.80;99.90
16243;DHT22;11719;51.052;6.982;2023-02-01T09:04:35;10.70;99.90
16243;DHT22;11719;51.052;6.982;2023-02-01T09:07:01;10.70;99.90
16243;DHT22;11719;51.052;6.982;2023-02-01T09:09:28;10.60;99.90
16243;DHT22;11719;51.052;6.982;2023-02-01T09:11:54;10.70;99.90
16243;DHT22;11719;51.052;6.982;2023-02-01T09:14:19;10.90;99.90
16243;DHT22;11719;51.052;6.982;2023-02-01T09:16:45;10.80;99.90
16243;DHT22;11719;51.052;6.982;2023-02-01T09:19:11;10.50;99.90
16243;DHT22;11719;51.052;6.982;2023-02-01T09:21:37;10.60;99.90
16243;DHT22;11719;51.052;6.982;2023-02-01T09:24:03;10.90;99.90
16243;DHT22;11719;51.052;6.982;2023-02-01T09:26:29;10.90;99.90
16243;DHT22;11719;51.052;6.982;2023-02-01T09:28:55;10.80;99.90
16243;DHT22;11719;51.052;6.982;2023-02-01T09:31:21;10.90;99.90
16243;DHT22;11719;51.052;6.982;2023-02-01T09:33:46;10.80;99.90
16243;DHT22;11719;51.052;6.982;2023-02-01T09:36:12;10.80;99.90
16243;DHT22;11719;51.052;6.982;2023-02-01T09:38:38;10.70;99.90
16243;DHT22;11719;51.052;6.982;2023-02-01T09:44:48;10.50;99.90
16243;DHT22;11719;51.052;6.982;2023-02-01T09:47:25;10.40;99.90
16243;DHT22;11719;51.052;6.982;2023-02-01T09:53:02;10.80;99.90
16243;DHT22;11719;51.052;6.982;2023-02-01T09:55:43;10.90;99.90
16243;DHT22;11719;51.052;6.982;2023-02-01T10:01:01;10.70;99.90
16243;DHT22;11719;51.052;6.982;2023-02-01T10:03:31;10.70;99.90
16243;DHT22;11719;51.052;6.982;2023-02-01T10:09:02;11.00;99.90
16243;DHT22;11719;51.052;6.982;2023-02-01T10:15:27;10.70;99.90
16243;DHT22;11719;51.052;6.982;2023-02-01T10:21:53;10.40;99.90
16243;DHT22;11719;51.052;6.982;2023-02-01T10:24:38;10.40;99.90
16243;DHT22;11719;51.052;6.982;2023-02-01T10:27:19;10.40;99.90
16243;DHT22;11719;51.052;6.982;2023-02-01T10:29:59;10.50;99.90
16243;DHT22;11719;51.052;6.982;2023-02-01T10:32:32;10.60;99.90
16243;DHT22;11719;51.052;6.982;2023-02-01T10:37:43;10.30;99.90
16243;DHT22;11719;51.052;6.982;2023-02-01T10:40:22;10.40;99.90
16243;DHT22;11719;51.052;6.982;2023-02-01T10:43:00;10.20;99.90
16243;DHT22;11719;51.052;6.982;2023-02-01T10:45:32;10.30;99.90
16243;DHT22;11719;51.052;6.982;2023-02-01T10:48:00;10.60;99.90
16243;DHT22;11719;51.052;6.982;2023-02-01T10:50:38;10.70;99.90
16243;DHT22;11719;51.052;6.982;2023-02-01T10:55:57;10.90;99.90
16243;DHT22;11719;51.052;6.982;2023-02-01T10:58:32;10.60;99.90
16243;DHT22;11719;51.052;6.982;2023-02-01T11:01:04;10.50;99.90
16243;DHT22;11719;51.052;6.982;2023-02-01T11:06:39;11.00;99.90
16243;DHT22;11719;51.052;6.982;2023-02-01T15:00:56;10.60;99.90
16243;DHT22;11719;51.052;6.982;2023-02-01T15:04:41;10.50;99.90
16243;DHT22;11719;51.052;6.982;2023-02-01T15:06:47;10.60;99.90
16243;DHT22;11719;51.052;6.982;2023-02-01T15:09:28;10.50;99.90
16243;DHT22;11719;51.052;6.982;2023-02-01T15:14:43;10.50;99.90
16243;DHT22;11719;51.052;6.982;2023-02-01T15:17:29;10.50;99.90
16243;DHT22;11719;51.052;6.982;2023-02-01T15:20:35;10.60;99.90
16243;DHT22;11719;51.052;6.982;2023-02-01T15:23:02;10.50;99.90
16243;DHT22;11719;51.052;6.982;2023-02-01T15:25:36;10.60;99.90
16243;DHT22;11719;51.052;6.982;2023-02-01T15:28:04;10.60;99.90
16243;DHT22;11719;51.052;6.982;2023-02-01T15:30:33;10.50;99.90
16243;DHT22;11719;51.052;6.982;2023-02-01T15:33:17;10.50;99.90
16243;DHT22;11719;51.052;6.982;2023-02-01T15:35:48;10.60;99.90
16243;DHT22;11719;51.052;6.982;2023-02-01T15:38:44;10.70;99.90
16243;DHT22;11719;51.052;6.982;2023-02-01T15:41:18;10.60;99.90
16243;DHT22;11719;51.052;6.982;2023-02-01T15:46:32;10.80;99.90
16243;DHT22;11719;51.052;6.982;2023-02-01T15:49:01;10.70;99.90
16243;DHT22;11719;51.052;6.982;2023-02-01T15:51:30;10.60;99.90
16243;DHT22;11719;51.052;6.982;2023-02-01T15:54:04;10.80;99.90
16243;DHT22;11719;51.052;6.982;2023-02-01T15:56:39;10.90;99.90
16243;DHT22;11719;51.052;6.982;2023-02-01T15:59:15;10.80;99.90
16243;DHT22;11719;51.052;6.982;2023-02-01T16:01:41;10.70;99.90
16243;DHT22;11719;51.052;6.982;2023-02-01T16:04:18;10.70;99.90
16243;DHT22;11719;51.052;6.982;2023-02-01T16:06:55;10.70;99.90
16243;DHT22;11719;51.052;6.982;2023-02-01T16:09:24;10.70;99.90
16243;DHT22;11719;51.052;6.982;2023-02-01T16:11:56;10.80;99.90
16243;DHT22;11719;51.052;6.982;2023-02-01T16:14:24;10.70;99.90
16243;DHT22;11719;51.052;6.982;2023-02-01T16:16:52;10.70;99.90
16243;DHT22;11719;51.052;6.982;2023-02-01T16:19:19;10.70;99.90
16243;DHT22;11719;51.052;6.982;2023-02-01T16:21:45;10.60;99.90
16243;DHT22;11719;51.052;6.982;2023-02-01T16:24:11;10.70;99.90
16243;DHT22;11719;51.052;6.982;2023-02-01T16:26:37;10.60;99.90
16243;DHT22;11719;51.052;6.982;2023-02-01T16:29:04;10.60;99.90
16243;DHT22;11719;51.052;6.982;2023-02-01T16:31:36;10.60;99.90
16243;DHT22;11719;51.052;6.982;2023-02-01T16:34:04;10.60;99.90
16243;DHT22;11719;51.052;6.982;2023-02-01T16:36:32;10.60;99.90
16243;DHT22;11719;51.052;6.982;2023-02-01T16:38:58;10.60;99.90
16243;DHT22;11719;51.052;6.982;2023-02-01T16:41:24;10.70;99.90
16243;DHT22;11719;51.052;6.982;2023-02-01T16:43:53;10.70;99.90
16243;DHT22;11719;51.052;6.982;2023-02-01T16:46:23;10.70;99.90
16243;DHT22;11719;51.052;6.982;2023-02-01T16:52:28;10.70;99.90
16243;DHT22;11719;51.052;6.982;2023-02-01T16:54:54;11.10;99.90
16243;DHT22;11719;51.052;6.982;2023-02-01T16:57:20;10.90;99.90
16243;DHT22;11719;51.052;6.982;2023-02-01T16:59:49;10.80;99.90
16243;DHT22;11719;51.052;6.982;2023-02-01T17:02:17;10.70;99.90
16243;DHT22;11719;51.052;6.982;2023-02-01T17:04:44;10.70;99.90
16243;DHT22;11719;51.052;6.982;2023-02-01T17:07:19;10.70;99.90
16243;DHT22;11719;51.052;6.982;2023-02-01T17:09:45;10.60;99.90
16243;DHT22;11719;51.052;6.982;2023-02-01T17:12:25;10.80;99.90
16243;DHT22;11719;51.052;6.982;2023-02-01T17:14:52;10.90;99.90
16243;DHT22;11719;51.052;6.982;2023-02-01T17:17:19;10.90;99.90
16243;DHT22;11719;51.052;6.982;2023-02-01T17:19:50;10.80;99.90
16243;DHT22;11719;51.052;6.982;2023-02-01T17:22:20;10.70;99.90
16243;DHT22;11719;51.052;6.982;2023-02-01T17:24:46;10.70;99.90
16243;DHT22;11719;51.052;6.982;2023-02-01T17:27:12;10.50;99.90
16243;DHT22;11719;51.052;6.982;2023-02-01T17:29:38;10.50;99.90
16243;DHT22;11719;51.052;6.982;2023-02-01T17:32:05;10.60;99.90
16243;DHT22;11719;51.052;6.982;2023-02-01T17:34:38;10.50;99.90
16243;DHT22;11719;51.052;6.982;2023-02-01T17:37:22;10.50;99.90
16243;DHT22;11719;51.052;6.982;2023-02-01T17:39:53;10.60;99.90
16243;DHT22;11719;51.052;6.982;2023-02-01T17:42:19;10.50;99.90
16243;DHT22;11719;51.052;6.982;2023-02-01T17:44:45;10.50;99.90
16243;DHT22;11719;51.052;6.982;2023-02-01T17:47:11;10.50;99.90
16243;DHT22;11719;51.052;6.982;2023-02-01T17:49:37;10.60;99.90
16243;DHT22;11719;51.052;6.982;2023-02-01T17:52:04;10.50;99.90
16243;DHT22;11719;51.052;6.982;2023-02-01T17:54:31;10.60;99.90
16243;DHT22;11719;51.052;6.982;2023-02-01T17:56:57;10.60;99.90
16243;DHT22;11719;51.052;6.982;2023-02-01T17:59:27;10.30;99.90
16243;DHT22;11719;51.052;6.982;2023-02-01T18:01:53;10.40;99.90
16243;DHT22;11719;51.052;6.982;2023-02-01T18:04:25;10.50;99.90
16243;DHT22;11719;51.052;6.982;2023-02-01T18:06:51;10.60;99.90
16243;DHT22;11719;51.052;6.982;2023-02-01T18:09:16;10.70;99.90
16243;DHT22;11719;51.052;6.982;2023-02-01T18:11:42;10.70;99.90
16243;DHT22;11719;51.052;6.982;2023-02-01T18:14:11;10.60;99.90
16243;DHT22;11719;51.052;6.982;2023-02-01T18:16:37;10.70;99.90
16243;DHT22;11719;51.052;6.982;2023-02-01T18:19:03;10.60;99.90
16243;DHT22;11719;51.052;6.982;2023-02-01T18:21:33;10.60;99.90
16243;DHT22;11719;51.052;6.982;2023-02-01T18:24:01;10.70;99.90
16243;DHT22;11719;51.052;6.982;2023-02-01T18:26:27;10.80;99.90
16243;DHT22;11719;51.052;6.982;2023-02-01T18:28:53;10.80;99.90
16243;DHT22;11719;51.052;6.982;2023-02-01T18:31:22;10.70;99.90
16243;DHT22;11719;51.052;6.982;2023-02-01T18:33:50;10.60;99.90
16243;DHT22;11719;51.052;6.982;2023-02-01T18:36:18;10.80;99.90
16243;DHT22;11719;51.052;6.982;2023-02-01T18:38:44;11.10;99.90
16243;DHT22;11719;51.052;6.982;2023-02-01T18:41:18;11.00;99.90
16243;DHT22;11719;51.052;6.982;2023-02-01T18:43:49;11.00;99.90
16243;DHT22;11719;51.052;6.982;2023-02-01T18:46:16;11.20;99.90
16243;DHT22;11719;51.052;6.982;2023-02-01T18:48:42;11.20;99.90
16243;DHT22;11719;51.052;6.982;2023-02-01T18:51:17;11.20;99.90
16243;DHT22;11719;51.052;6.982;2023-02-01T18:53:45;11.30;99.90
16243;DHT22;11719;51.052;6.982;2023-02-01T18:56:12;11.30;99.90
16243;DHT22;11719;51.052;6.982;2023-02-01T18:58:39;11.30;99.90
16243;DHT22;11719;51.052;6.982;2023-02-01T19:01:08;11.10;99.90
16243;DHT22;11719;51.052;6.982;2023-02-01T19:03:40;11.10;99.90
16243;DHT22;11719;51.052;6.982;2023-02-01T19:06:06;11.00;99.90
16243;DHT22;11719;51.052;6.982;2023-02-01T19:08:33;11.00;99.90
16243;DHT22;11719;51.052;6.982;2023-02-01T19:10:59;11.10;99.90
16243;DHT22;11719;51.052;6.982;2023-02-01T19:13:25;10.90;99.90
16243;DHT22;11719;51.052;6.982;2023-02-01T19:15:55;10.80;99.90
16243;DHT22;11719;51.052;6.982;2023-02-01T19:18:21;10.90;99.90
16243;DHT22;11719;51.052;6.982;2023-02-01T19:20:48;10.90;99.90
16243;DHT22;11719;51.052;6.982;2023-02-01T19:23:19;10.80;99.90
16243;DHT22;11719;51.052;6.982;2023-02-01T19:25:47;10.80;99.90
16243;DHT22;11719;51.052;6.982;2023-02-01T19:28:14;10.60;99.90
16243;DHT22;11719;51.052;6.982;2023-02-01T19:30:40;10.50;99.90
16243;DHT22;11719;51.052;6.982;2023-02-01T19:33:06;10.50;99.90
16243;DHT22;11719;51.052;6.982;2023-02-01T19:35:32;10.50;99.90
16243;DHT22;11719;51.052;6.982;2023-02-01T19:37:58;10.50;99.90
16243;DHT22;11719;51.052;6.982;2023-02-01T19:40:24;10.60;99.90
16243;DHT22;11719;51.052;6.982;2023-02-01T19:42:52;10.60;99.90
16243;DHT22;11719;51.052;6.982;2023-02-01T19:45:20;10.50;99.90
16243;DHT22;11719;51.052;6.982;2023-02-01T19:47:46;10.60;99.90
16243;DHT22;11719;51.052;6.982;2023-02-01T19:50:21;10.50;99.90
16243;DHT22;11719;51.052;6.982;2023-02-01T19:52:47;10.50;99.90
16243;DHT22;11719;51.052;6.982;2023-02-01T19:55:14;10.60;99.90
16243;DHT22;11719;51.052;6.982;2023-02-01T19:57:39;10.60;99.90
16243;DHT22;11719;51.052;6.982;2023-02-01T20:00:06;10.90;99.90
16243;DHT22;11719;51.052;6.982;2023-02-01T20:02:35;11.00;99.90
16243;DHT22;11719;51.052;6.982;2023-02-01T20:05:01;11.20;99.90
16243;DHT22;11719;51.052;6.982;2023-02-01T20:07:27;11.40;99.90
16243;DHT22;11719;51.052;6.982;2023-02-01T20:09:52;11.40;99.90
16243;DHT22;11719;51.052;6.982;2023-02-01T20:12:18;11.40;99.90
16243;DHT22;11719;51.052;6.982;2023-02-01T20:14:44;11.30;99.90
16243;DHT22;11719;51.052;6.982;2023-02-01T20:17:14;11.40;99.90
16243;DHT22;11719;51.052;6.982;2023-02-01T20:19:40;11.40;99.90
16243;DHT22;11719;51.052;6.982;2023-02-01T20:22:06;11.40;99.90
16243;DHT22;11719;51.052;6.982;2023-02-01T20:24:32;11.40;99.90
16243;DHT22;11719;51.052;6.982;2023-02-01T20:26:57;11.50;99.90
16243;DHT22;11719;51.052;6.982;2023-02-01T20:29:23;11.50;99.90
16243;DHT22;11719;51.052;6.982;2023-02-01T20:31:49;11.50;99.90
16243;DHT22;11719;51.052;6.982;2023-02-01T20:34:15;11.50;99.90
16243;DHT22;11719;51.052;6.982;2023-02-01T20:36:41;11.40;99.90
16243;DHT22;11719;51.052;6.982;2023-02-01T20:39:07;11.50;99.90
16243;DHT22;11719;51.052;6.982;2023-02-01T20:41:34;11.70;99.90
16243;DHT22;11719;51.052;6.982;2023-02-01T20:44:00;11.70;99.90